Time;durP1;ratioP1;P1;durP2;ratioP2;P2;SDS_P1;SDS_P2;PMS_P1;PMS_P2;Temp;Humidity;BMP_temperature;BMP_pressure;BME280_temperature;BME280_humidity;BME280_pressure;Samples;Min_cycle;Max_cycle;Signal;HPM_P1;HPM_P2
2021/08/20 00:02:00;;;;;;;0.10;0.10;;;24.30;57.80;;;;;;5060285;28;20233;-66
2021/08/20 00:04:28;;;;;;;0.00;0.00;;;24.30;58.10;;;;;;5064423;28;20237;-66
2021/08/20 00:06:55;;;;;;;0.00;0.00;;;24.30;58.10;;;;;;5060603;28;20214;-66
2021/08/20 00:09:22;;;;;;;0.43;0.43;;;24.20;58.10;;;;;;5064538;28;20209;-66
2021/08/20 00:11:49;;;;;;;0.00;0.00;;;24.20;58.30;;;;;;5061424;28;20587;-66
2021/08/20 00:14:17;;;;;;;0.30;0.30;;;24.20;58.40;;;;;;5062756;28;20549;-66
2021/08/20 00:16:44;;;;;;;5.83;0.70;;;24.20;58.50;;;;;;5063373;28;20209;-66
2021/08/20 00:19:11;;;;;;;0.00;0.00;;;24.10;58.60;;;;;;5064238;28;20237;-66
2021/08/20 00:21:39;;;;;;;0.20;0.20;;;24.10;58.80;;;;;;5060026;28;20697;-66
2021/08/20 00:24:07;;;;;;;0.23;0.23;;;24.00;59.20;;;;;;5063918;28;20218;-66
2021/08/20 00:26:34;;;;;;;0.10;0.10;;;24.00;58.60;;;;;;5063825;28;20221;-66
2021/08/20 00:29:01;;;;;;;0.00;0.00;;;24.00;58.70;;;;;;5063357;28;20278;-66
2021/08/20 00:31:28;;;;;;;0.00;0.00;;;24.00;58.80;;;;;;5061198;28;20218;-66
2021/08/20 00:33:55;;;;;;;0.10;0.10;;;24.00;59.00;;;;;;5063701;28;20242;-66
2021/08/20 00:36:22;;;;;;;0.00;0.00;;;24.00;59.00;;;;;;5061366;28;20291;-66
2021/08/20 00:38:49;;;;;;;0.47;0.47;;;23.90;58.90;;;;;;5063796;28;20651;-66
2021/08/20 00:41:16;;;;;;;0.00;0.00;;;23.90;59.00;;;;;;5063425;28;20218;-66
2021/08/20 00:43:45;;;;;;;0.00;0.00;;;23.90;59.00;;;;;;5063076;28;20283;-66
2021/08/20 00:46:12;;;;;;;0.00;0.00;;;23.80;59.20;;;;;;5060617;28;20218;-66
2021/08/20 00:48:39;;;;;;;0.10;0.10;;;23.80;59.30;;;;;;5062603;28;20213;-66
2021/08/20 00:51:18;;;;;;;0.37;0.37;;;23.80;59.50;;;;;;5063012;28;20551;-66
2021/08/20 00:53:47;;;;;;;0.00;0.00;;;23.70;59.60;;;;;;5062268;28;20238;-66
2021/08/20 00:56:15;;;;;;;0.00;0.00;;;23.70;59.80;;;;;;5060579;28;20213;-66
2021/08/20 00:58:43;;;;;;;0.10;0.10;;;23.70;59.80;;;;;;5064715;28;20577;-66
2021/08/20 01:01:10;;;;;;;0.00;0.00;;;23.60;59.80;;;;;;5063008;28;20202;-66
2021/08/20 01:03:38;;;;;;;0.00;0.00;;;23.70;59.90;;;;;;5063571;28;20222;-66
2021/08/20 01:06:06;;;;;;;0.20;0.20;;;23.70;60.00;;;;;;5064351;28;20209;-66
2021/08/20 01:08:35;;;;;;;0.00;0.00;;;23.70;60.00;;;;;;5059728;28;20268;-66
2021/08/20 01:11:04;;;;;;;0.00;0.00;;;23.70;60.10;;;;;;5060555;28;20218;-66
2021/08/20 01:13:33;;;;;;;0.10;0.10;;;23.60;60.20;;;;;;5060295;28;20241;-66
2021/08/20 01:16:01;;;;;;;0.00;0.00;;;23.60;60.40;;;;;;5060122;28;20217;-66
2021/08/20 01:18:47;;;;;;;0.00;0.00;;;23.60;60.50;;;;;;5061211;28;20271;-66
2021/08/20 01:21:17;;;;;;;0.00;0.00;;;23.60;60.50;;;;;;5061271;28;20244;-66
2021/08/20 01:23:46;;;;;;;0.00;0.00;;;23.60;60.50;;;;;;5059610;28;20445;-66
2021/08/20 01:26:13;;;;;;;0.10;0.10;;;23.60;60.50;;;;;;5061737;28;20576;-66
2021/08/20 01:28:40;;;;;;;0.00;0.00;;;23.60;60.60;;;;;;5069865;28;20294;-66
2021/08/20 01:31:10;;;;;;;0.10;0.10;;;23.60;60.70;;;;;;5059774;28;20714;-66
2021/08/20 01:33:38;;;;;;;0.10;0.10;;;23.60;60.60;;;;;;5063674;28;20273;-66
2021/08/20 01:36:05;;;;;;;0.00;0.00;;;23.60;60.90;;;;;;5059954;28;20210;-66
2021/08/20 01:38:34;;;;;;;0.00;0.00;;;23.60;60.90;;;;;;5060490;28;20222;-66
2021/08/20 01:41:01;;;;;;;0.10;0.10;;;23.60;61.00;;;;;;5060909;28;20214;-66
2021/08/20 01:43:28;;;;;;;0.10;0.10;;;23.60;61.00;;;;;;5063709;28;20283;-66
2021/08/20 01:45:55;;;;;;;0.00;0.00;;;23.60;61.20;;;;;;5061085;28;20214;-66
2021/08/20 01:48:22;;;;;;;0.10;0.10;;;23.50;61.20;;;;;;5061229;28;20299;-66
2021/08/20 01:50:48;;;;;;;0.30;0.30;;;23.50;61.30;;;;;;5062498;28;20210;-66
2021/08/20 01:53:16;;;;;;;0.00;0.00;;;23.50;61.60;;;;;;5068931;28;20238;-66
2021/08/20 01:55:46;;;;;;;0.00;0.00;;;23.40;62.00;;;;;;5060563;28;20214;-66
2021/08/20 01:58:13;;;;;;;0.00;0.00;;;23.30;62.10;;;;;;5062784;28;20213;-66
2021/08/20 02:00:41;;;;;;;0.10;0.10;;;23.30;62.40;;;;;;5061112;28;20278;-66
2021/08/20 02:03:09;;;;;;;0.00;0.00;;;23.20;62.40;;;;;;5060285;28;20233;-66
2021/08/20 02:05:36;;;;;;;0.00;0.00;;;23.20;62.60;;;;;;5062304;28;20290;-66
2021/08/20 02:08:04;;;;;;;0.00;0.00;;;23.20;62.50;;;;;;5061633;28;20677;-66
2021/08/20 02:10:31;;;;;;;0.10;0.10;;;23.20;62.70;;;;;;5062310;28;20214;-66
2021/08/20 02:12:58;;;;;;;0.00;0.00;;;23.20;62.80;;;;;;5068193;28;20330;-66
2021/08/20 02:15:25;;;;;;;0.00;0.00;;;23.10;62.80;;;;;;5060783;28;20214;-66
2021/08/20 02:17:52;;;;;;;1.47;1.43;;;23.10;62.80;;;;;;5062354;28;20275;-66
2021/08/20 02:20:19;;;;;;;0.03;0.03;;;23.10;63.00;;;;;;5060136;28;20214;-66
2021/08/20 02:22:45;;;;;;;0.10;0.10;;;23.00;63.20;;;;;;5060925;28;20292;-66
2021/08/20 02:25:13;;;;;;;0.00;0.00;;;23.00;63.30;;;;;;5062470;28;20622;-66
2021/08/20 02:27:40;;;;;;;0.20;0.20;;;23.00;63.60;;;;;;5067961;28;20275;-66
2021/08/20 02:30:07;;;;;;;0.00;0.00;;;22.90;63.60;;;;;;5060764;28;20214;-66
2021/08/20 02:32:34;;;;;;;0.10;0.10;;;22.90;64.00;;;;;;5062222;28;20585;-66
2021/08/20 02:35:17;;;;;;;0.10;0.10;;;22.80;64.40;;;;;;5059658;28;20572;-66
2021/08/20 02:37:44;;;;;;;0.00;0.00;;;22.80;64.60;;;;;;5068685;28;20607;-66
2021/08/20 02:40:11;;;;;;;0.10;0.10;;;22.80;64.80;;;;;;5063172;28;20210;-66
2021/08/20 02:42:38;;;;;;;0.00;0.00;;;22.70;64.90;;;;;;5069756;28;20271;-66
2021/08/20 02:45:06;;;;;;;0.03;0.03;;;22.70;65.10;;;;;;5065106;28;20547;-66
2021/08/20 02:47:33;;;;;;;0.10;0.10;;;22.60;65.00;;;;;;5066729;28;20217;-66
2021/08/20 02:50:00;;;;;;;0.03;0.03;;;22.70;65.00;;;;;;5066543;28;20206;-66
2021/08/20 02:52:27;;;;;;;0.17;0.17;;;22.60;65.00;;;;;;5063502;28;20210;-66
2021/08/20 02:54:54;;;;;;;0.00;0.00;;;22.60;65.10;;;;;;5063744;28;20231;-66
2021/08/20 02:57:27;;;;;;;0.10;0.10;;;22.60;65.20;;;;;;5065227;28;20221;-66
2021/08/20 02:59:56;;;;;;;0.10;0.10;;;22.60;65.40;;;;;;5065904;28;20279;-66
2021/08/20 03:02:24;;;;;;;0.07;0.07;;;22.50;65.70;;;;;;5065579;28;20210;-66
2021/08/20 03:04:51;;;;;;;0.00;0.00;;;22.50;65.80;;;;;;5061989;28;20214;-66
2021/08/20 03:07:18;;;;;;;2.90;0.93;;;22.50;65.80;;;;;;5065201;28;20225;-66
2021/08/20 03:09:45;;;;;;;0.20;0.20;;;22.40;65.80;;;;;;5065501;28;20287;-66
2021/08/20 03:12:12;;;;;;;0.10;0.10;;;22.40;66.10;;;;;;5063170;28;20221;-66
2021/08/20 03:14:39;;;;;;;0.00;0.00;;;22.30;66.20;;;;;;5070030;28;20234;-66
2021/08/20 03:17:06;;;;;;;0.23;0.23;;;22.30;66.60;;;;;;5065466;28;20210;-66
2021/08/20 03:19:33;;;;;;;0.00;0.00;;;22.20;66.70;;;;;;5071782;28;20210;-66
2021/08/20 03:22:00;;;;;;;0.10;0.10;;;22.20;67.00;;;;;;5069835;28;20218;-66
2021/08/20 03:24:27;;;;;;;0.00;0.00;;;22.10;67.30;;;;;;5065187;28;20630;-66
2021/08/20 03:26:54;;;;;;;0.00;0.00;;;22.10;67.80;;;;;;5062943;28;20226;-66
2021/08/20 03:29:21;;;;;;;0.77;0.40;;;22.00;68.00;;;;;;5062904;28;20271;-66
2021/08/20 03:31:48;;;;;;;0.00;0.00;;;22.00;68.20;;;;;;5064597;28;20221;-66
2021/08/20 03:34:14;;;;;;;23.97;0.93;;;22.00;68.30;;;;;;5063081;28;20241;-66
2021/08/20 03:36:42;;;;;;;0.00;0.00;;;22.00;68.40;;;;;;5061617;28;20640;-66
2021/08/20 03:39:09;;;;;;;0.07;0.07;;;22.00;68.40;;;;;;5064960;28;20291;-66
2021/08/20 03:41:35;;;;;;;0.00;0.00;;;22.00;68.30;;;;;;5063204;28;20296;-66
2021/08/20 03:44:03;;;;;;;0.10;0.10;;;22.00;68.20;;;;;;5062618;28;20264;-66
2021/08/20 03:46:30;;;;;;;0.00;0.00;;;22.00;68.20;;;;;;5071604;28;20738;-66
2021/08/20 03:48:57;;;;;;;0.20;0.20;;;22.00;68.40;;;;;;5063075;28;20575;-66
2021/08/20 03:51:24;;;;;;;0.00;0.00;;;22.00;68.40;;;;;;5064809;28;20279;-66
2021/08/20 03:53:51;;;;;;;0.10;0.10;;;22.00;68.50;;;;;;5061927;28;20230;-66
2021/08/20 03:56:18;;;;;;;0.00;0.00;;;22.00;68.60;;;;;;5063084;28;20686;-66
2021/08/20 03:58:45;;;;;;;0.10;0.10;;;21.90;68.70;;;;;;5064288;28;20267;-66
2021/08/20 04:01:12;;;;;;;0.00;0.00;;;21.90;69.00;;;;;;5061341;28;20264;-66
2021/08/20 04:03:39;;;;;;;0.00;0.00;;;21.90;69.20;;;;;;5063033;28;20210;-66
2021/08/20 04:06:10;;;;;;;0.10;0.10;;;21.80;69.30;;;;;;5064066;28;20210;-66
2021/08/20 04:08:40;;;;;;;0.00;0.00;;;21.90;69.70;;;;;;5062331;28;20222;-66
2021/08/20 04:11:13;;;;;;;0.00;0.00;;;21.80;70.00;;;;;;5061809;28;20222;-66
2021/08/20 04:13:41;;;;;;;0.03;0.03;;;21.80;70.30;;;;;;5062000;28;20299;-66
2021/08/20 04:16:08;;;;;;;0.00;0.00;;;21.80;70.60;;;;;;5061917;28;20225;-66
2021/08/20 04:18:35;;;;;;;0.10;0.10;;;21.70;71.30;;;;;;5064411;28;20274;-66
2021/08/20 04:21:02;;;;;;;0.40;0.40;;;21.60;71.50;;;;;;5061982;28;20206;-66
2021/08/20 04:23:29;;;;;;;0.00;0.00;;;21.60;71.50;;;;;;5060954;28;20563;-66
2021/08/20 04:25:56;;;;;;;0.20;0.20;;;21.50;71.40;;;;;;5070829;28;20651;-66
2021/08/20 04:28:23;;;;;;;0.83;0.83;;;21.50;71.70;;;;;;5062366;28;20233;-66
2021/08/20 04:30:50;;;;;;;0.00;0.00;;;21.50;71.90;;;;;;5061255;28;20215;-66
2021/08/20 04:33:17;;;;;;;0.10;0.10;;;21.50;71.80;;;;;;5063725;28;20284;-66
2021/08/20 04:35:44;;;;;;;0.00;0.00;;;21.50;71.80;;;;;;5061908;28;20206;-66
2021/08/20 04:38:11;;;;;;;0.10;0.10;;;21.50;71.70;;;;;;5061720;28;20263;-66
2021/08/20 04:40:38;;;;;;;0.10;0.10;;;21.50;71.60;;;;;;5063560;28;20221;-66
2021/08/20 04:43:05;;;;;;;0.10;0.10;;;21.60;71.70;;;;;;5070142;28;20624;-66
2021/08/20 04:45:32;;;;;;;0.20;0.20;;;21.60;71.80;;;;;;5061021;28;20225;-66
2021/08/20 04:47:59;;;;;;;0.10;0.10;;;21.60;71.80;;;;;;5064051;28;20210;-66
2021/08/20 04:50:29;;;;;;;0.10;0.10;;;21.70;71.80;;;;;;5063707;28;20210;-66
2021/08/20 04:52:56;;;;;;;0.00;0.00;;;21.70;71.70;;;;;;5060786;28;20623;-66
2021/08/20 04:55:23;;;;;;;0.10;0.10;;;21.70;71.70;;;;;;5062734;28;20240;-66
2021/08/20 04:57:50;;;;;;;0.03;0.03;;;21.70;71.90;;;;;;5062890;28;20207;-66
2021/08/20 05:00:17;;;;;;;0.00;0.00;;;21.70;72.10;;;;;;5061013;28;20293;-66
2021/08/20 05:02:44;;;;;;;0.10;0.10;;;21.70;72.20;;;;;;5062817;28;20221;-66
2021/08/20 05:05:13;;;;;;;0.00;0.00;;;21.70;72.20;;;;;;5070288;28;20305;-66
2021/08/20 05:07:40;;;;;;;0.00;0.00;;;21.80;72.30;;;;;;5063801;28;20220;-66
2021/08/20 05:10:10;;;;;;;0.10;0.10;;;21.80;72.10;;;;;;5061181;28;20632;-66
2021/08/20 05:12:39;;;;;;;0.10;0.10;;;21.80;72.10;;;;;;5060762;28;20214;-66
2021/08/20 05:15:07;;;;;;;0.10;0.10;;;21.80;71.90;;;;;;5060679;28;20677;-66
2021/08/20 05:17:34;;;;;;;0.07;0.07;;;21.80;71.80;;;;;;5061304;28;20218;-66
2021/08/20 05:20:01;;;;;;;0.00;0.00;;;21.80;71.60;;;;;;5070841;28;20213;-66
2021/08/20 05:22:45;;;;;;;0.10;0.10;;;21.90;71.70;;;;;;5060386;28;20225;-66
2021/08/20 05:25:13;;;;;;;0.00;0.00;;;21.90;71.50;;;;;;5066117;28;20225;-66
2021/08/20 05:27:40;;;;;;;0.10;0.10;;;21.90;71.30;;;;;;5062089;28;20305;-66
2021/08/20 05:30:09;;;;;;;0.10;0.10;;;21.90;71.20;;;;;;5060434;28;20582;-66
2021/08/20 05:32:37;;;;;;;0.00;0.00;;;21.90;70.90;;;;;;5060914;28;20241;-66
2021/08/20 05:35:05;;;;;;;0.00;0.00;;;22.00;70.70;;;;;;5061404;28;20233;-66
2021/08/20 05:37:32;;;;;;;0.10;0.10;;;22.10;70.40;;;;;;5060298;28;20214;-66
2021/08/20 05:39:59;;;;;;;0.03;0.03;;;22.30;69.80;;;;;;5062262;28;20228;-66
2021/08/20 05:42:27;;;;;;;0.10;0.10;;;22.60;69.00;;;;;;5062288;28;20258;-66
2021/08/20 05:44:54;;;;;;;0.00;0.00;;;22.90;68.20;;;;;;5063104;28;20649;-67
2021/08/20 05:47:21;;;;;;;0.03;0.03;;;23.10;67.50;;;;;;5061638;28;20272;-67
2021/08/20 05:49:48;;;;;;;0.00;0.00;;;23.30;66.60;;;;;;5064012;28;20220;-67
2021/08/20 05:52:16;;;;;;;0.00;0.00;;;23.50;66.30;;;;;;5065510;28;20497;-67
2021/08/20 05:54:43;;;;;;;0.00;0.00;;;23.60;65.80;;;;;;5070159;28;20245;-67
2021/08/20 05:57:10;;;;;;;2.50;1.13;;;23.80;65.40;;;;;;5059868;28;20701;-67
2021/08/20 05:59:37;;;;;;;0.00;0.00;;;24.10;65.00;;;;;;5061745;28;20216;-67
2021/08/20 06:02:07;;;;;;;0.00;0.00;;;24.20;64.40;;;;;;5061835;28;20206;-67
2021/08/20 06:04:34;;;;;;;0.10;0.10;;;24.20;64.00;;;;;;5059187;28;20409;-67
2021/08/20 06:07:02;;;;;;;0.10;0.10;;;24.00;64.30;;;;;;5068205;28;20283;-67
2021/08/20 06:09:29;;;;;;;0.00;0.00;;;23.90;64.60;;;;;;5062337;28;20217;-67
2021/08/20 06:11:56;;;;;;;0.10;0.10;;;23.90;64.80;;;;;;5059964;28;20218;-67
2021/08/20 06:14:23;;;;;;;0.00;0.00;;;23.80;65.10;;;;;;5062927;28;20226;-67
2021/08/20 06:16:54;;;;;;;1.30;1.20;;;23.80;65.50;;;;;;5065697;28;20236;-67
2021/08/20 06:19:22;;;;;;;0.10;0.10;;;23.90;65.00;;;;;;5064302;28;20272;-67
2021/08/20 06:21:50;;;;;;;0.40;0.40;;;23.90;64.70;;;;;;5064248;28;20308;-67
2021/08/20 06:24:17;;;;;;;0.00;0.00;;;23.90;64.80;;;;;;5066629;28;20234;-67
2021/08/20 06:26:48;;;;;;;0.00;0.00;;;24.00;65.30;;;;;;5064399;28;20604;-67
2021/08/20 06:29:19;;;;;;;0.10;0.10;;;24.10;64.50;;;;;;5064072;28;20222;-67
2021/08/20 06:31:50;;;;;;;0.00;0.00;;;24.30;64.00;;;;;;5063807;28;20292;-67
2021/08/20 06:34:17;;;;;;;0.07;0.07;;;24.40;63.70;;;;;;5064003;28;20226;-67
2021/08/20 06:36:44;;;;;;;0.00;0.00;;;24.60;63.20;;;;;;5066166;28;20237;-67
2021/08/20 06:39:12;;;;;;;0.30;0.30;;;24.80;62.70;;;;;;5064932;28;20213;-67
2021/08/20 06:41:39;;;;;;;0.17;0.17;;;25.00;62.10;;;;;;5062467;28;20218;-67
2021/08/20 06:44:06;;;;;;;0.10;0.10;;;25.10;61.70;;;;;;5065935;28;20251;-67
2021/08/20 06:46:33;;;;;;;0.00;0.00;;;25.10;61.50;;;;;;5064350;28;20218;-67
2021/08/20 06:49:00;;;;;;;0.00;0.00;;;25.10;61.70;;;;;;5063253;28;20214;-67
2021/08/20 06:51:27;;;;;;;0.10;0.10;;;25.10;61.70;;;;;;5065688;28;20211;-67
2021/08/20 06:53:54;;;;;;;0.30;0.30;;;25.00;61.70;;;;;;5064252;28;20210;-67
2021/08/20 06:56:21;;;;;;;0.03;0.03;;;24.90;62.00;;;;;;5065459;28;20213;-67
2021/08/20 06:58:48;;;;;;;0.00;0.00;;;24.90;62.20;;;;;;5063742;28;20210;-67
2021/08/20 07:01:16;;;;;;;0.10;0.10;;;24.90;62.40;;;;;;5063691;28;20213;-67
2021/08/20 07:03:43;;;;;;;0.00;0.00;;;24.90;62.50;;;;;;5073184;28;20599;-67
2021/08/20 07:06:18;;;;;;;0.10;0.10;;;25.00;62.30;;;;;;5071338;28;20259;-67
2021/08/20 07:08:47;;;;;;;0.10;0.10;;;25.10;62.00;;;;;;5065554;28;20205;-67
2021/08/20 07:11:14;;;;;;;0.10;0.10;;;25.20;61.80;;;;;;5063020;28;20280;-67
2021/08/20 07:13:41;;;;;;;0.00;0.00;;;25.20;61.50;;;;;;5063687;28;20215;-67
2021/08/20 07:16:08;;;;;;;0.10;0.10;;;25.30;61.40;;;;;;5065147;28;20241;-67
2021/08/20 07:18:36;;;;;;;3.30;1.70;;;25.30;61.20;;;;;;5063378;28;20214;-67
2021/08/20 07:21:03;;;;;;;0.00;0.00;;;25.30;61.20;;;;;;5063039;28;20233;-67
2021/08/20 07:23:32;;;;;;;0.00;0.00;;;25.30;61.20;;;;;;5072460;28;20230;-67
2021/08/20 07:26:04;;;;;;;0.20;0.20;;;25.40;61.10;;;;;;5062238;28;20551;-67
2021/08/20 07:28:32;;;;;;;0.03;0.03;;;25.50;60.90;;;;;;5062513;28;20232;-67
2021/08/20 07:31:00;;;;;;;0.00;0.00;;;25.60;60.70;;;;;;5064140;28;20437;-67
2021/08/20 07:33:28;;;;;;;0.00;0.00;;;25.70;60.50;;;;;;5061305;28;20246;-67
2021/08/20 07:35:55;;;;;;;0.33;0.20;;;25.90;60.30;;;;;;5064694;28;20315;-67
2021/08/20 07:38:22;;;;;;;0.00;0.00;;;26.10;59.80;;;;;;5071640;28;20218;-67
2021/08/20 07:40:49;;;;;;;0.00;0.00;;;26.20;59.70;;;;;;5062184;28;20877;-67
2021/08/20 07:43:16;;;;;;;0.03;0.03;;;26.40;59.60;;;;;;5066425;28;20210;-67
2021/08/20 07:45:43;;;;;;;0.00;0.00;;;26.70;59.10;;;;;;5062384;28;20317;-67
2021/08/20 07:48:12;;;;;;;0.10;0.10;;;26.70;58.90;;;;;;5065079;28;20229;-67
2021/08/20 07:50:40;;;;;;;0.10;0.10;;;26.80;58.80;;;;;;5064479;28;20206;-67
2021/08/20 07:53:08;;;;;;;0.50;0.50;;;26.90;58.60;;;;;;5055633;28;20225;-67
2021/08/20 07:55:35;;;;;;;0.10;0.10;;;26.90;58.40;;;;;;5061438;28;20235;-67
2021/08/20 07:58:02;;;;;;;0.00;0.00;;;27.00;58.60;;;;;;5063962;28;20210;-67
2021/08/20 08:00:31;;;;;;;0.00;0.00;;;27.20;57.60;;;;;;5063640;28;20292;-67
2021/08/20 08:02:59;;;;;;;1.40;1.13;;;27.30;56.70;;;;;;5062201;28;20292;-67
2021/08/20 08:05:28;;;;;;;0.63;0.63;;;27.60;56.90;;;;;;5065411;28;20229;-67
2021/08/20 08:07:56;;;;;;;0.30;0.30;;;28.00;56.20;;;;;;5062125;28;20408;-67
2021/08/20 08:10:24;;;;;;;0.53;0.33;;;28.50;55.00;;;;;;5066487;28;20273;-67
2021/08/20 08:12:52;;;;;;;0.00;0.00;;;28.90;54.30;;;;;;5062557;28;20229;-67
2021/08/20 08:15:21;;;;;;;0.20;0.20;;;29.10;54.10;;;;;;5064485;28;20238;-67
2021/08/20 08:17:48;;;;;;;0.00;0.00;;;29.10;54.10;;;;;;5063251;28;20718;-67
2021/08/20 08:20:16;;;;;;;0.00;0.00;;;29.10;52.60;;;;;;5062287;28;20206;-67
2021/08/20 08:22:44;;;;;;;0.10;0.10;;;29.00;52.60;;;;;;5064171;28;20224;-67
2021/08/20 08:25:12;;;;;;;3.60;1.57;;;29.10;53.00;;;;;;5070651;28;20648;-67
2021/08/20 08:27:59;;;;;;;0.00;0.00;;;29.30;52.10;;;;;;5068229;28;20221;-67
2021/08/20 08:30:28;;;;;;;0.20;0.20;;;29.50;52.20;;;;;;5070573;28;20214;-67
2021/08/20 08:32:58;;;;;;;0.03;0.03;;;29.80;52.40;;;;;;5070154;28;20241;-67
2021/08/20 08:35:28;;;;;;;0.00;0.00;;;30.00;50.90;;;;;;5061151;28;20273;-67
2021/08/20 08:38:06;;;;;;;0.00;0.00;;;30.30;50.90;;;;;;5065928;28;20722;-67
2021/08/20 08:40:34;;;;;;;0.00;0.00;;;30.50;50.60;;;;;;5060675;28;20210;-67
2021/08/20 08:43:06;;;;;;;0.00;0.00;;;30.80;48.20;;;;;;5063285;28;20634;-67
2021/08/20 08:45:33;;;;;;;0.00;0.00;;;30.80;47.70;;;;;;5059604;28;20268;-67
2021/08/20 08:48:04;;;;;;;0.00;0.00;;;30.80;48.20;;;;;;5062375;28;20718;-67
2021/08/20 08:50:33;;;;;;;0.10;0.10;;;30.90;48.50;;;;;;5070890;28;20217;-67
2021/08/20 08:53:01;;;;;;;0.83;0.63;;;31.20;48.30;;;;;;5060890;28;20293;-68
2021/08/20 08:55:28;;;;;;;0.47;0.47;;;31.50;47.60;;;;;;5061727;28;20291;-67
2021/08/20 08:57:56;;;;;;;0.00;0.00;;;31.80;46.80;;;;;;5063646;28;20213;-67
2021/08/20 09:00:32;;;;;;;0.00;0.00;;;31.90;46.20;;;;;;5061084;28;20222;-67
2021/08/20 09:03:00;;;;;;;0.00;0.00;;;32.10;45.80;;;;;;5060001;28;20241;-67
2021/08/20 09:05:42;;;;;;;0.07;0.07;;;32.20;45.80;;;;;;5064214;28;20651;-67
2021/08/20 09:08:17;;;;;;;0.00;0.00;;;32.40;45.70;;;;;;5060717;28;20226;-67
2021/08/20 09:10:56;;;;;;;0.00;0.00;;;32.30;44.20;;;;;;5060675;28;20218;-67
2021/08/20 09:13:29;;;;;;;0.00;0.00;;;31.90;44.60;;;;;;5063025;28;20217;-67
2021/08/20 09:16:14;;;;;;;0.00;0.00;;;31.50;45.60;;;;;;5060135;28;20672;-67
2021/08/20 09:18:41;;;;;;;0.40;0.40;;;31.30;45.10;;;;;;5058962;28;20241;-67
2021/08/20 09:21:17;;;;;;;0.10;0.10;;;31.10;45.30;;;;;;5061660;28;20575;-67
2021/08/20 09:23:44;;;;;;;0.00;0.00;;;30.90;46.20;;;;;;5060674;28;20279;-67
2021/08/20 09:26:11;;;;;;;1.30;0.77;;;30.90;46.00;;;;;;5061480;28;20217;-67
2021/08/20 09:28:38;;;;;;;0.10;0.10;;;30.90;45.80;;;;;;5063024;28;20214;-67
2021/08/20 09:31:09;;;;;;;0.10;0.10;;;30.90;45.80;;;;;;5062656;28;20681;-67
2021/08/20 09:33:48;;;;;;;0.00;0.00;;;30.80;45.50;;;;;;5062031;28;20252;-67
2021/08/20 09:36:17;;;;;;;0.00;0.00;;;30.90;45.20;;;;;;5060783;28;20851;-67
2021/08/20 09:38:51;;;;;;;0.00;0.00;;;31.20;44.50;;;;;;5060625;28;20280;-67
2021/08/20 09:41:35;;;;;;;0.00;0.00;;;31.40;44.10;;;;;;5061076;28;20202;-67
2021/08/20 09:44:08;;;;;;;0.00;0.00;;;31.70;44.00;;;;;;5061112;28;20217;-67
2021/08/20 09:46:43;;;;;;;0.10;0.10;;;31.80;42.50;;;;;;5059032;28;20210;-67
2021/08/20 09:49:12;;;;;;;0.20;0.20;;;32.10;42.00;;;;;;5063443;28;20551;-67
2021/08/20 09:51:46;;;;;;;0.10;0.10;;;32.40;41.00;;;;;;5064026;28;20218;-67
2021/08/20 09:54:21;;;;;;;0.00;0.00;;;32.60;39.70;;;;;;5065952;28;20647;-67
2021/08/20 09:56:58;;;;;;;0.50;0.40;;;32.80;38.70;;;;;;5067024;28;20586;-67
2021/08/20 09:59:29;;;;;;;0.10;0.10;;;33.00;37.90;;;;;;5066740;28;20628;-67
2021/08/20 10:02:00;;;;;;;0.10;0.10;;;33.10;37.30;;;;;;5064674;28;20236;-67
2021/08/20 10:04:29;;;;;;;0.00;0.00;;;33.10;37.80;;;;;;5064324;28;20229;-67
2021/08/20 10:06:59;;;;;;;0.30;0.30;;;33.20;38.10;;;;;;5067113;28;20214;-67
2021/08/20 10:09:28;;;;;;;0.10;0.10;;;33.20;37.90;;;;;;5074291;28;20253;-67
2021/08/20 10:11:56;;;;;;;0.00;0.00;;;33.30;38.10;;;;;;5063726;28;20586;-67
2021/08/20 10:14:25;;;;;;;0.10;0.10;;;33.10;36.70;;;;;;5065267;28;20214;-67
2021/08/20 10:16:52;;;;;;;0.00;0.00;;;33.00;37.50;;;;;;5073647;28;20650;-67
2021/08/20 10:19:19;;;;;;;0.00;0.00;;;33.00;37.40;;;;;;5064464;28;20584;-67
2021/08/20 10:21:47;;;;;;;0.00;0.00;;;33.30;37.80;;;;;;5064624;28;20222;-67
2021/08/20 10:24:15;;;;;;;0.03;0.03;;;33.50;36.90;;;;;;5066553;28;20214;-67
2021/08/20 10:26:56;;;;;;;0.07;0.07;;;33.80;36.60;;;;;;5064210;28;20455;-67
2021/08/20 10:29:29;;;;;;;0.00;0.00;;;34.00;34.50;;;;;;5064426;28;20241;-67
2021/08/20 10:31:58;;;;;;;0.00;0.00;;;34.00;35.40;;;;;;5063622;28;20230;-67
2021/08/20 10:34:32;;;;;;;0.00;0.00;;;34.20;35.50;;;;;;5068484;28;20226;-66
2021/08/20 10:37:30;;;;;;;0.20;0.20;;;34.40;34.80;;;;;;5063623;28;20241;-66
2021/08/20 10:40:24;;;;;;;0.00;0.00;;;34.50;34.90;;;;;;5063882;28;20297;-66
2021/08/20 10:42:50;;;;;;;0.00;0.00;;;34.40;34.30;;;;;;5064159;28;20215;-66
2021/08/20 10:45:18;;;;;;;0.10;0.10;;;34.30;34.10;;;;;;5062295;28;20272;-67
2021/08/20 10:47:46;;;;;;;0.10;0.10;;;34.20;33.30;;;;;;5065633;28;20206;-67
2021/08/20 10:50:16;;;;;;;0.00;0.00;;;34.00;33.80;;;;;;5065861;28;20197;-67
2021/08/20 10:52:46;;;;;;;0.00;0.00;;;33.90;34.50;;;;;;5065690;28;20581;-67
2021/08/20 10:55:20;;;;;;;0.10;0.10;;;33.90;34.10;;;;;;5072256;28;20594;-67
2021/08/20 10:57:50;;;;;;;0.00;0.00;;;33.90;33.30;;;;;;5062963;28;20214;-67
2021/08/20 11:00:21;;;;;;;0.73;0.57;;;33.80;33.40;;;;;;5070363;28;20326;-67
2021/08/20 11:02:51;;;;;;;0.00;0.00;;;33.80;33.70;;;;;;5065680;28;20274;-66
2021/08/20 11:05:19;;;;;;;0.10;0.10;;;33.80;33.50;;;;;;5064328;28;20215;-66
2021/08/20 11:07:47;;;;;;;0.00;0.00;;;33.90;33.90;;;;;;5066347;28;20217;-66
2021/08/20 11:10:14;;;;;;;0.00;0.00;;;33.90;34.00;;;;;;5065293;28;20574;-66
2021/08/20 11:12:42;;;;;;;0.00;0.00;;;34.00;34.30;;;;;;5072496;28;20390;-66
2021/08/20 11:15:18;;;;;;;0.73;0.73;;;34.30;34.40;;;;;;5062638;28;20214;-66
2021/08/20 11:17:49;;;;;;;0.10;0.10;;;34.50;33.80;;;;;;5063475;28;20228;-66
2021/08/20 11:20:24;;;;;;;0.10;0.10;;;34.70;33.80;;;;;;5065299;28;20210;-66
2021/08/20 11:25:45;;;;;;;0.10;0.10;;;35.10;33.40;;;;;;5064798;28;20217;-67
2021/08/20 11:28:18;;;;;;;0.20;0.20;;;35.20;33.80;;;;;;5062558;28;20244;-67
2021/08/20 11:31:06;;;;;;;0.00;0.00;;;35.40;34.10;;;;;;5069391;28;20214;-67
2021/08/20 11:33:35;;;;;;;0.00;0.00;;;35.50;33.80;;;;;;5062305;28;20246;-67
2021/08/20 11:36:03;;;;;;;0.00;0.00;;;35.60;33.50;;;;;;5063484;28;20225;-67
2021/08/20 11:38:40;;;;;;;0.10;0.10;;;35.60;32.20;;;;;;5064881;28;20205;-67
2021/08/20 11:41:19;;;;;;;0.00;0.00;;;35.30;32.00;;;;;;5063420;28;20542;-67
2021/08/20 11:43:58;;;;;;;0.00;0.00;;;35.20;33.00;;;;;;5064008;28;20309;-67
2021/08/20 11:46:27;;;;;;;0.00;0.00;;;34.90;33.40;;;;;;5062514;28;20550;-67
2021/08/20 11:48:57;;;;;;;0.00;0.00;;;34.80;34.00;;;;;;5062420;28;20216;-67
2021/08/20 11:51:29;;;;;;;0.00;0.00;;;34.70;33.60;;;;;;5072197;28;20287;-67
2021/08/20 11:53:59;;;;;;;0.40;0.40;;;34.80;34.00;;;;;;5063366;28;20878;-67
2021/08/20 11:56:27;;;;;;;0.00;0.00;;;34.90;34.20;;;;;;5061513;28;20550;-67
2021/08/20 11:58:54;;;;;;;0.00;0.00;;;35.00;34.00;;;;;;5062338;28;20221;-67
2021/08/20 12:01:27;;;;;;;0.20;0.20;;;35.10;33.30;;;;;;5065776;28;20223;-67
2021/08/20 12:03:57;;;;;;;0.00;0.00;;;35.20;33.50;;;;;;5062512;28;20508;-67
2021/08/20 12:06:26;;;;;;;0.00;0.00;;;35.20;33.10;;;;;;5066039;28;20210;-67
2021/08/20 12:08:57;;;;;;;0.10;0.10;;;35.20;32.80;;;;;;5064638;28;20658;-67
2021/08/20 12:11:29;;;;;;;0.10;0.10;;;34.90;32.80;;;;;;5062681;28;20218;-67
2021/08/20 12:13:57;;;;;;;0.10;0.10;;;34.70;33.50;;;;;;5061313;28;20580;-67
2021/08/20 12:16:45;;;;;;;0.00;0.00;;;34.50;32.60;;;;;;5061823;28;20230;-67
2021/08/20 12:19:28;;;;;;;0.00;0.00;;;34.40;33.90;;;;;;5063220;28;20214;-66
2021/08/20 12:22:03;;;;;;;0.00;0.00;;;34.30;33.50;;;;;;5062399;28;20210;-66
2021/08/20 12:24:38;;;;;;;0.10;0.10;;;34.40;32.70;;;;;;5061449;28;20214;-66
2021/08/20 12:27:26;;;;;;;0.00;0.00;;;34.20;33.00;;;;;;5061677;28;20222;-66
2021/08/20 12:29:59;;;;;;;0.00;0.00;;;34.20;33.40;;;;;;5063941;28;20686;-66
2021/08/20 12:32:28;;;;;;;0.30;0.30;;;34.20;33.60;;;;;;5061639;28;20360;-66
2021/08/20 12:35:00;;;;;;;0.00;0.00;;;34.20;33.70;;;;;;5060513;28;20211;-66
2021/08/20 12:37:29;;;;;;;0.10;0.10;;;34.20;33.30;;;;;;5061486;28;20618;-66
2021/08/20 12:40:13;;;;;;;0.00;0.00;;;34.10;33.80;;;;;;5061872;28;20215;-66
2021/08/20 12:42:46;;;;;;;0.00;0.00;;;34.10;33.80;;;;;;5063190;28;20214;-66
2021/08/20 12:45:15;;;;;;;0.00;0.00;;;34.20;33.40;;;;;;5060484;28;20214;-66
2021/08/20 12:47:45;;;;;;;0.00;0.00;;;34.20;33.90;;;;;;5061565;28;20225;-66
2021/08/20 12:50:18;;;;;;;0.13;0.13;;;34.20;33.80;;;;;;5068626;28;20244;-66
2021/08/20 12:52:45;;;;;;;0.00;0.00;;;34.20;34.00;;;;;;5068084;28;20214;-66
2021/08/20 12:55:29;;;;;;;0.00;0.00;;;34.10;34.20;;;;;;5063717;28;20233;-66
2021/08/20 12:57:58;;;;;;;0.00;0.00;;;34.10;34.10;;;;;;5063564;28;20523;-66
2021/08/20 13:00:31;;;;;;;0.10;0.10;;;34.10;34.20;;;;;;5061716;28;20225;-66
2021/08/20 13:03:00;;;;;;;0.10;0.10;;;34.00;33.80;;;;;;5067845;28;20506;-66